Погода Гуарульюсна неделю

Сан-Паулу, Бразилия

18 - 24 июня
  • 18июня
    Сегодня
    +12°
    +27°
    Ясно и безоблачно
    ВремяПогодаТемператураВлажностьДавлениеВетер, м/сВероятность осадков
    00:00Ясно и безоблачно+19°C70 %703 мм1.7 м/с5 %
    03:00Ясно и безоблачно+17°C66 %702 мм2.4 м/с5 %
    06:00Ясно и безоблачно+15°C68 %702 мм2.1 м/с5 %
    09:00Ясно и безоблачно+20°C52 %704 мм3.8 м/с5 %
    12:00Ясно и безоблачно+25°C29 %704 мм5.0 м/с5 %
    15:00Ясно и безоблачно+26°C27 %703 мм4.1 м/с5 %
    18:00Ясно и безоблачно+21°C51 %702 мм1.9 м/с5 %
    21:00Ясно и безоблачно+16°C60 %702 мм1.2 м/с5 %
  • 19июня
    Среда
    +12°
    +28°
    Ясно и безоблачно
    ВремяПогодаТемператураВлажностьДавлениеВетер, м/сВероятность осадков
    00:00Ясно и безоблачно+15°C72 %702 мм1.6 м/с5 %
    03:00Ясно и безоблачно+14°C72 %702 мм2.2 м/с5 %
    06:00Ясно и безоблачно+13°C79 %702 мм1.8 м/с5 %
    09:00Ясно и безоблачно+19°C56 %705 мм3.3 м/с5 %
    12:00Ясно и безоблачно+26°C33 %705 мм4.5 м/с5 %
    15:00Ясно и безоблачно+27°C29 %704 мм3.8 м/с5 %
    18:00Ясно и безоблачно+22°C48 %703 мм1.6 м/с5 %
    21:00Ясно и безоблачно+17°C55 %704 мм1.1 м/с5 %
  • 20июня
    Четверг
    +13°
    +27°
    Ясно и безоблачно
    ВремяПогодаТемператураВлажностьДавлениеВетер, м/сВероятность осадков
    00:00Ясно и безоблачно+16°C60 %704 мм1.2 м/с5 %
    03:00Ясно и безоблачно+15°C79 %703 мм2.0 м/с5 %
    06:00Ясно и безоблачно+13°C84 %703 мм1.5 м/с5 %
    09:00Ясно и безоблачно+19°C66 %706 мм2.9 м/с5 %
    12:00Практически безоблачно+26°C35 %706 мм2.7 м/с5 %
    15:00Ясно и безоблачно+27°C30 %705 мм3.2 м/с5 %
    18:00Ясно и безоблачно+21°C64 %705 мм2.3 м/с5 %
    21:00Ясно и безоблачно+17°C84 %705 мм1.1 м/с5 %
  • 21июня
    Пятница
    +13°
    +26°
    Ясно и безоблачно
    ВремяПогодаТемператураВлажностьДавлениеВетер, м/сВероятность осадков
    00:00Ясно и безоблачно+15°C78 %705 мм1.4 м/с5 %
    03:00Ясно и безоблачно+14°C83 %704 мм2.0 м/с5 %
    06:00Ясно и безоблачно+13°C78 %704 мм1.9 м/с5 %
    09:00Ясно и безоблачно+18°C59 %706 мм3.4 м/с5 %
    12:00Ясно и безоблачно+24°C34 %706 мм3.7 м/с5 %
    15:00Ясно и безоблачно+26°C24 %705 мм3.1 м/с5 %
    18:00Ясно и безоблачно+21°C51 %704 мм2.4 м/с5 %
    21:00Ясно и безоблачно+16°C80 %704 мм1.3 м/с5 %
Мы используем cookies
Соглашаюсь